Terminal Aerodrome Forecast
Issued by NWS

Home | Current Version | Previous Version | Text Only | Print | Product List | Glossary On
Versions: 1 2 3 4 5 6 7 8 9 10 11 12 13 14 15 16
000
FTUS45 KGJT 221120
TAFCNY
TAF
KCNY 221120Z 2212/2312 14007KT P6SM SCT090 BKN200
     FM221700 19007KT P6SM SCT090 BKN200
     FM230200 06009KT P6SM SCT110 BKN200
     FM230500 08005KT P6SM FEW100 SCT200=

USA.gov is the U.S. government's official web portal to all federal, state and local government web resources and services.